Time;durP1;ratioP1;P1;durP2;ratioP2;P2;SDS_P1;SDS_P2;PMS_P1;PMS_P2;Temp;Humidity;BMP_temperature;BMP_pressure;BME280_temperature;BME280_humidity;BME280_pressure;Samples;Min_cycle;Max_cycle;Signal;HPM_P1;HPM_P2
2022/05/28 00:03:46;;;;;;;7.40;1.70;;;;;;;;;;8304481;28;20034;-58
2022/05/28 00:07:46;;;;;;;6.78;1.83;;;;;;;;;;8305795;28;20029;-59
2022/05/28 00:11:47;;;;;;;8.40;1.95;;;;;;;;;;8304189;28;20029;-59
2022/05/28 00:15:47;;;;;;;7.78;1.58;;;;;;;;;;8302683;28;20033;-58
2022/05/28 00:19:47;;;;;;;7.00;1.98;;;;;;;;;;8303417;28;20122;-58
2022/05/28 00:23:47;;;;;;;7.57;2.05;;;;;;;;;;8311834;28;20083;-58
2022/05/28 00:27:47;;;;;;;7.60;2.08;;;;;;;;;;8312773;28;20045;-58
2022/05/28 00:31:47;;;;;;;8.02;1.77;;;;;;;;;;8309617;28;20199;-58
2022/05/28 00:35:48;;;;;;;5.65;1.63;;;;;;;;;;8312848;28;20080;-58
2022/05/28 00:39:48;;;;;;;4.53;1.30;;;;;;;;;;8313327;28;20025;-59
2022/05/28 00:43:48;;;;;;;5.93;1.40;;;;;;;;;;8314378;28;20036;-58
2022/05/28 00:47:50;;;;;;;5.18;1.33;;;;;;;;;;8312332;28;20045;-58
2022/05/28 00:51:52;;;;;;;7.78;1.52;;;;;;;;;;8312225;28;20036;-57
2022/05/28 00:55:53;;;;;;;5.05;2.00;;;;;;;;;;8312274;28;20064;-58
2022/05/28 00:59:54;;;;;;;6.35;1.35;;;;;;;;;;8308608;28;20082;-58
2022/05/28 01:04:03;;;;;;;5.18;1.55;;;;;;;;;;8310740;28;20063;-58
2022/05/28 01:08:03;;;;;;;4.25;1.17;;;;;;;;;;8308043;28;20072;-58
2022/05/28 01:12:13;;;;;;;8.70;1.60;;;;;;;;;;8309897;28;20025;-59
2022/05/28 01:16:22;;;;;;;4.72;1.40;;;;;;;;;;8308182;28;20041;-58
2022/05/28 01:20:30;;;;;;;8.63;1.38;;;;;;;;;;8310933;28;20203;-57
2022/05/28 01:24:30;;;;;;;7.00;1.73;;;;;;;;;;8311203;28;20028;-58
2022/05/28 01:28:34;;;;;;;6.22;1.50;;;;;;;;;;8309720;28;20029;-57
2022/05/28 01:32:35;;;;;;;3.95;1.30;;;;;;;;;;8309133;28;20033;-58
2022/05/28 01:36:36;;;;;;;4.38;1.33;;;;;;;;;;8307812;28;20109;-58
2022/05/28 01:40:36;;;;;;;5.53;1.48;;;;;;;;;;8307630;28;20021;-57
2022/05/28 01:44:38;;;;;;;4.75;1.50;;;;;;;;;;8311568;28;20422;-58
2022/05/28 01:48:40;;;;;;;2.95;1.23;;;;;;;;;;8309218;28;20076;-57
2022/05/28 01:52:41;;;;;;;7.43;1.30;;;;;;;;;;8310149;28;20410;-59
2022/05/28 01:56:43;;;;;;;8.30;1.42;;;;;;;;;;8311231;28;20609;-59
2022/05/28 02:00:44;;;;;;;4.30;1.40;;;;;;;;;;8308458;28;20037;-58
2022/05/28 02:04:46;;;;;;;6.20;1.50;;;;;;;;;;8311597;28;20048;-57
2022/05/28 02:08:47;;;;;;;6.07;1.25;;;;;;;;;;8310282;28;20029;-59
2022/05/28 02:13:06;;;;;;;5.93;1.58;;;;;;;;;;8309166;28;20087;-58
2022/05/28 02:17:25;;;;;;;4.22;1.27;;;;;;;;;;8306171;28;20065;-58
2022/05/28 02:21:34;;;;;;;4.93;1.38;;;;;;;;;;8310100;28;20166;-57
2022/05/28 02:25:44;;;;;;;9.20;1.70;;;;;;;;;;8307369;28;20052;-58
2022/05/28 02:29:45;;;;;;;4.82;1.40;;;;;;;;;;8311190;28;20017;-58
2022/05/28 02:33:45;;;;;;;7.13;1.48;;;;;;;;;;8306712;28;20044;-58
2022/05/28 02:37:45;;;;;;;4.38;1.40;;;;;;;;;;8310421;28;20025;-58
2022/05/28 02:41:46;;;;;;;5.55;1.40;;;;;;;;;;8305931;28;20017;-58
2022/05/28 02:45:46;;;;;;;6.40;1.50;;;;;;;;;;8308588;28;20040;-58
2022/05/28 02:49:46;;;;;;;4.70;1.40;;;;;;;;;;8307246;28;20020;-59
2022/05/28 02:53:48;;;;;;;5.65;1.40;;;;;;;;;;8308115;28;20627;-58
2022/05/28 02:57:48;;;;;;;5.78;1.23;;;;;;;;;;8305023;28;20033;-58
2022/05/28 03:01:49;;;;;;;5.00;1.08;;;;;;;;;;8308904;28;20132;-58
2022/05/28 03:05:50;;;;;;;4.35;1.33;;;;;;;;;;8306325;28;20071;-57
2022/05/28 03:09:50;;;;;;;5.15;1.48;;;;;;;;;;8309495;28;20037;-59
2022/05/28 03:13:51;;;;;;;6.90;1.50;;;;;;;;;;8305569;28;20036;-58
2022/05/28 03:17:51;;;;;;;5.55;1.70;;;;;;;;;;8307653;28;20767;-57
2022/05/28 03:21:51;;;;;;;4.50;1.23;;;;;;;;;;8307946;28;20029;-58
2022/05/28 03:25:52;;;;;;;6.80;1.70;;;;;;;;;;8309156;28;20266;-57
2022/05/28 03:29:52;;;;;;;7.97;1.60;;;;;;;;;;8302917;28;20294;-59
2022/05/28 03:33:52;;;;;;;8.38;1.75;;;;;;;;;;8306212;28;20124;-58
2022/05/28 03:37:53;;;;;;;4.55;1.25;;;;;;;;;;8305810;28;20039;-57
2022/05/28 03:41:53;;;;;;;5.90;1.43;;;;;;;;;;8305505;28;20052;-58
2022/05/28 03:45:54;;;;;;;11.43;1.67;;;;;;;;;;8304764;28;20360;-58
2022/05/28 03:49:55;;;;;;;6.45;1.52;;;;;;;;;;8304006;28;21262;-58
2022/05/28 03:53:55;;;;;;;6.07;1.37;;;;;;;;;;8303905;28;20289;-57
2022/05/28 03:57:55;;;;;;;8.52;1.63;;;;;;;;;;8305638;28;20064;-58
2022/05/28 04:01:55;;;;;;;6.93;1.55;;;;;;;;;;8305537;28;20139;-59
2022/05/28 04:05:56;;;;;;;7.40;1.70;;;;;;;;;;8305394;28;20106;-58
2022/05/28 04:09:56;;;;;;;5.97;1.77;;;;;;;;;;8299763;28;20039;-58
2022/05/28 04:13:57;;;;;;;6.07;1.38;;;;;;;;;;8303330;28;21103;-58
2022/05/28 04:17:57;;;;;;;6.47;1.45;;;;;;;;;;8303405;28;20041;-58
2022/05/28 04:21:57;;;;;;;7.05;1.75;;;;;;;;;;8303005;28;20037;-58
2022/05/28 04:25:57;;;;;;;6.00;1.50;;;;;;;;;;8303831;28;20387;-57
2022/05/28 04:30:00;;;;;;;10.68;1.50;;;;;;;;;;8304959;28;20290;-57
2022/05/28 04:34:01;;;;;;;3.72;1.10;;;;;;;;;;8304541;28;20037;-57
2022/05/28 04:38:01;;;;;;;4.10;1.38;;;;;;;;;;8303789;28;20032;-58
2022/05/28 04:42:01;;;;;;;5.75;1.45;;;;;;;;;;8304789;28;20025;-58
2022/05/28 04:46:02;;;;;;;5.03;1.60;;;;;;;;;;8305121;28;20034;-58
2022/05/28 04:50:02;;;;;;;5.65;1.40;;;;;;;;;;8304583;28;20030;-58
2022/05/28 04:54:02;;;;;;;3.25;1.23;;;;;;;;;;8305076;28;20482;-59
2022/05/28 04:58:03;;;;;;;8.13;1.63;;;;;;;;;;8303897;28;20650;-58
2022/05/28 05:02:04;;;;;;;6.18;1.35;;;;;;;;;;8304466;28;20060;-58
2022/05/28 05:06:04;;;;;;;7.50;1.58;;;;;;;;;;8304237;28;20391;-58
2022/05/28 05:10:05;;;;;;;6.90;1.42;;;;;;;;;;8310129;28;20115;-59
2022/05/28 05:14:05;;;;;;;5.45;1.63;;;;;;;;;;8309484;28;20097;-58
2022/05/28 05:18:05;;;;;;;8.90;1.75;;;;;;;;;;8312537;28;20126;-59
2022/05/28 05:22:06;;;;;;;4.80;1.58;;;;;;;;;;8310607;28;20963;-58
2022/05/28 05:26:10;;;;;;;2.15;1.10;;;;;;;;;;8311249;28;20417;-58
2022/05/28 05:30:10;;;;;;;6.53;1.73;;;;;;;;;;8309218;28;20514;-59
2022/05/28 05:34:12;;;;;;;9.00;1.42;;;;;;;;;;8312112;28;20172;-59
2022/05/28 05:38:12;;;;;;;5.00;1.48;;;;;;;;;;8309330;28;20035;-58
2022/05/28 05:42:12;;;;;;;4.32;1.30;;;;;;;;;;8309038;28;20029;-59
2022/05/28 05:46:13;;;;;;;5.03;1.60;;;;;;;;;;8310076;28;20038;-59
2022/05/28 05:50:13;;;;;;;7.70;1.60;;;;;;;;;;8310752;28;20087;-58
2022/05/28 05:54:14;;;;;;;5.73;1.50;;;;;;;;;;8311499;28;20021;-59
2022/05/28 05:58:14;;;;;;;7.55;1.80;;;;;;;;;;8310926;28;20053;-58
2022/05/28 06:02:15;;;;;;;8.35;1.60;;;;;;;;;;8309482;28;20102;-59
2022/05/28 06:06:16;;;;;;;6.15;1.50;;;;;;;;;;8307190;28;20032;-58
2022/05/28 06:10:16;;;;;;;6.75;1.80;;;;;;;;;;8306918;28;20029;-59
2022/05/28 06:14:17;;;;;;;6.23;1.80;;;;;;;;;;8310429;28;20044;-59
2022/05/28 06:18:17;;;;;;;7.78;1.63;;;;;;;;;;8305401;28;20037;-59
2022/05/28 06:22:17;;;;;;;6.25;1.63;;;;;;;;;;8308867;28;20029;-58
2022/05/28 06:26:17;;;;;;;8.45;1.98;;;;;;;;;;8308026;28;20028;-58
2022/05/28 06:30:18;;;;;;;6.50;1.60;;;;;;;;;;8309311;28;20766;-59
2022/05/28 06:34:18;;;;;;;6.73;2.00;;;;;;;;;;8309107;28;20024;-59
2022/05/28 06:38:20;;;;;;;6.57;2.00;;;;;;;;;;8310175;28;20115;-59
2022/05/28 06:42:20;;;;;;;5.63;2.00;;;;;;;;;;8300722;28;20663;-63
2022/05/28 06:46:20;;;;;;;8.25;1.90;;;;;;;;;;8309655;28;20041;-59
2022/05/28 06:54:40;;;;;;;6.80;1.77;;;;;;;;;;8307802;28;20087;-60
2022/05/28 06:58:40;;;;;;;4.87;1.60;;;;;;;;;;8304578;28;20021;-59
2022/05/28 07:02:40;;;;;;;9.48;2.40;;;;;;;;;;8307663;28;20069;-59
2022/05/28 07:06:40;;;;;;;5.40;1.80;;;;;;;;;;8307384;28;20045;-59
2022/05/28 07:10:45;;;;;;;8.27;2.10;;;;;;;;;;8306664;28;20851;-59
2022/05/28 07:14:45;;;;;;;5.82;1.83;;;;;;;;;;8307570;28;20020;-60
2022/05/28 07:18:45;;;;;;;9.70;1.95;;;;;;;;;;8308028;28;20080;-59
2022/05/28 07:22:45;;;;;;;6.95;2.00;;;;;;;;;;8304964;28;20018;-59
2022/05/28 07:26:49;;;;;;;4.80;1.70;;;;;;;;;;8307663;28;20025;-59
2022/05/28 07:30:50;;;;;;;5.28;1.63;;;;;;;;;;8304790;28;20067;-59
2022/05/28 07:34:50;;;;;;;5.65;2.00;;;;;;;;;;8308033;28;20028;-60
2022/05/28 07:38:51;;;;;;;9.00;1.90;;;;;;;;;;8308238;28;20025;-59
2022/05/28 07:42:51;;;;;;;4.95;1.70;;;;;;;;;;8306447;28;20058;-59
2022/05/28 07:46:52;;;;;;;5.90;1.70;;;;;;;;;;8306570;28;20046;-59
2022/05/28 07:50:52;;;;;;;5.37;1.50;;;;;;;;;;8305797;28;20063;-59
2022/05/28 07:54:52;;;;;;;3.90;1.42;;;;;;;;;;8306450;28;20830;-59
2022/05/28 07:58:54;;;;;;;6.95;1.90;;;;;;;;;;8306801;28;20025;-59
2022/05/28 08:02:55;;;;;;;6.23;1.73;;;;;;;;;;8304295;28;20088;-59
2022/05/28 08:06:55;;;;;;;4.53;1.63;;;;;;;;;;8305914;28;20037;-59
2022/05/28 08:10:55;;;;;;;3.77;1.20;;;;;;;;;;8305583;28;20333;-59
2022/05/28 08:14:55;;;;;;;3.63;1.20;;;;;;;;;;8303462;28;20086;-59
2022/05/28 08:18:56;;;;;;;3.47;1.20;;;;;;;;;;8306891;28;20143;-59
2022/05/28 08:23:11;;;;;;;3.53;1.20;;;;;;;;;;8303840;28;20029;-60
2022/05/28 08:27:11;;;;;;;4.10;1.17;;;;;;;;;;8305422;28;20029;-59
2022/05/28 08:31:11;;;;;;;8.17;1.20;;;;;;;;;;8305585;28;20072;-58
2022/05/28 08:35:12;;;;;;;2.93;1.13;;;;;;;;;;8305047;28;20292;-58
2022/05/28 08:39:13;;;;;;;2.33;1.05;;;;;;;;;;8303976;28;20152;-58
2022/05/28 08:43:14;;;;;;;4.00;1.10;;;;;;;;;;8307718;28;20478;-60
2022/05/28 08:47:16;;;;;;;3.33;1.20;;;;;;;;;;8310093;28;20528;-60
2022/05/28 08:51:37;;;;;;;3.53;0.95;;;;;;;;;;8311639;28;20139;-59
2022/05/28 08:55:41;;;;;;;3.38;1.20;;;;;;;;;;8311587;28;20029;-59
2022/05/28 08:59:56;;;;;;;3.03;1.27;;;;;;;;;;8309794;28;20265;-59
2022/05/28 09:03:59;;;;;;;2.40;1.00;;;;;;;;;;8311508;28;21514;-59
2022/05/28 09:07:59;;;;;;;;;;;;;;;;;;8310905;28;20029;-59
2022/05/28 09:12:01;;;;;;;4.22;1.30;;;;;;;;;;8312403;28;19919;-60
2022/05/28 09:16:05;;;;;;;4.18;1.45;;;;;;;;;;8309791;28;20041;-59
2022/05/28 09:20:08;;;;;;;5.53;1.30;;;;;;;;;;8310710;28;20167;-59
2022/05/28 09:24:25;;;;;;;2.45;1.20;;;;;;;;;;8310414;28;20052;-59
2022/05/28 09:28:35;;;;;;;2.95;1.27;;;;;;;;;;8311571;28;20040;-59
2022/05/28 09:32:54;;;;;;;2.22;1.00;;;;;;;;;;8311153;28;20045;-59
2022/05/28 09:37:00;;;;;;;3.55;1.48;;;;;;;;;;8310390;28;20402;-59
2022/05/28 09:41:12;;;;;;;7.40;1.45;;;;;;;;;;8308885;28;20473;-59
2022/05/28 09:45:28;;;;;;;2.85;1.20;;;;;;;;;;8308541;28;20030;-59
2022/05/28 09:49:28;;;;;;;3.08;1.20;;;;;;;;;;8310766;28;20215;-59
2022/05/28 09:58:00;;;;;;;2.50;1.20;;;;;;;;;;8313263;28;20031;-60
2022/05/28 10:02:19;;;;;;;3.83;1.27;;;;;;;;;;8308036;28;20128;-59
2022/05/28 10:06:20;;;;;;;3.00;0.93;;;;;;;;;;8310208;28;20057;-60
2022/05/28 10:10:21;;;;;;;3.28;1.25;;;;;;;;;;8311118;28;20039;-59
2022/05/28 10:14:22;;;;;;;2.97;1.10;;;;;;;;;;8310305;28;20048;-60
2022/05/28 10:18:25;;;;;;;5.00;1.20;;;;;;;;;;8307373;28;20033;-59
2022/05/28 10:22:27;;;;;;;2.58;1.10;;;;;;;;;;8310584;28;20033;-60
2022/05/28 10:26:30;;;;;;;3.45;1.17;;;;;;;;;;8310159;28;20033;-60
2022/05/28 10:30:44;;;;;;;3.83;1.20;;;;;;;;;;8308130;28;20153;-59
2022/05/28 10:34:44;;;;;;;3.75;1.08;;;;;;;;;;8307560;28;20021;-59
2022/05/28 10:38:44;;;;;;;3.05;1.20;;;;;;;;;;8309148;28;20329;-60
2022/05/28 10:42:45;;;;;;;2.58;0.90;;;;;;;;;;8307286;28;20203;-59
2022/05/28 10:46:57;;;;;;;4.28;0.95;;;;;;;;;;8309850;28;20677;-58
2022/05/28 10:50:57;;;;;;;2.90;1.00;;;;;;;;;;8308362;28;20139;-59
2022/05/28 10:55:06;;;;;;;2.70;1.05;;;;;;;;;;8307491;28;20235;-59
2022/05/28 10:59:26;;;;;;;2.30;1.17;;;;;;;;;;8307331;28;20329;-59
2022/05/28 11:03:33;;;;;;;1.75;0.90;;;;;;;;;;8307377;28;20029;-59
2022/05/28 11:07:51;;;;;;;3.83;1.17;;;;;;;;;;8307943;28;20022;-59
2022/05/28 11:12:02;;;;;;;4.90;1.33;;;;;;;;;;8306667;28;20024;-60
2022/05/28 11:16:12;;;;;;;2.50;1.00;;;;;;;;;;8306994;28;20037;-59
2022/05/28 11:20:12;;;;;;;4.80;1.30;;;;;;;;;;8308146;28;20028;-59
2022/05/28 11:24:42;;;;;;;3.33;1.10;;;;;;;;;;8307651;28;20033;-59
2022/05/28 11:29:05;;;;;;;2.17;0.95;;;;;;;;;;8308363;28;20063;-59
2022/05/28 11:33:18;;;;;;;5.15;1.10;;;;;;;;;;8306739;28;20092;-59
2022/05/28 11:37:24;;;;;;;1.60;0.90;;;;;;;;;;8305779;28;20025;-59
2022/05/28 11:41:28;;;;;;;3.72;1.08;;;;;;;;;;8307249;28;20034;-59
2022/05/28 11:45:37;;;;;;;4.30;1.20;;;;;;;;;;8313983;28;20537;-59
2022/05/28 11:54:21;;;;;;;5.65;1.13;;;;;;;;;;8305707;28;20031;-59
2022/05/28 11:58:24;;;;;;;2.65;1.23;;;;;;;;;;8307962;28;20526;-59
2022/05/28 12:02:28;;;;;;;4.00;1.20;;;;;;;;;;8306909;28;20072;-58
2022/05/28 12:06:31;;;;;;;2.15;0.85;;;;;;;;;;8307825;28;20719;-59
2022/05/28 12:10:37;;;;;;;1.33;1.00;;;;;;;;;;8307438;28;20025;-58
2022/05/28 12:14:39;;;;;;;4.32;1.10;;;;;;;;;;8306795;28;20028;-60
2022/05/28 12:18:42;;;;;;;1.55;0.85;;;;;;;;;;8308220;28;20088;-59
2022/05/28 12:23:14;;;;;;;2.05;1.10;;;;;;;;;;8313148;28;20119;-59
2022/05/28 12:27:21;;;;;;;2.20;1.00;;;;;;;;;;8309390;28;20045;-59
2022/05/28 12:31:23;;;;;;;1.73;1.00;;;;;;;;;;8312081;28;20409;-60
2022/05/28 12:35:26;;;;;;;4.03;1.20;;;;;;;;;;8314704;28;20497;-60
2022/05/28 12:39:46;;;;;;;3.60;1.00;;;;;;;;;;8313550;28;20030;-59
2022/05/28 12:44:05;;;;;;;1.27;0.90;;;;;;;;;;8312319;28;20051;-58
2022/05/28 12:48:06;;;;;;;1.73;0.90;;;;;;;;;;8314105;28;20725;-59
2022/05/28 12:52:12;;;;;;;2.45;1.00;;;;;;;;;;8311733;28;20057;-59
2022/05/28 12:56:23;;;;;;;1.40;0.90;;;;;;;;;;8314323;28;20072;-58
2022/05/28 13:00:29;;;;;;;4.28;1.40;;;;;;;;;;8311796;28;20048;-59
2022/05/28 13:04:32;;;;;;;3.63;1.00;;;;;;;;;;8311816;28;20045;-59
2022/05/28 13:08:33;;;;;;;1.60;0.93;;;;;;;;;;8311654;28;20033;-59
2022/05/28 13:12:46;;;;;;;3.05;1.10;;;;;;;;;;8312688;28;20031;-59
2022/05/28 13:16:46;;;;;;;5.88;1.13;;;;;;;;;;8311462;28;20041;-59
2022/05/28 13:20:52;;;;;;;1.35;1.10;;;;;;;;;;8312565;28;20581;-58
2022/05/28 13:24:52;;;;;;;3.20;1.08;;;;;;;;;;8310206;28;20845;-62
2022/05/28 13:29:02;;;;;;;1.98;0.90;;;;;;;;;;8309955;28;20091;-59
2022/05/28 13:33:04;;;;;;;1.23;0.90;;;;;;;;;;8313360;28;20130;-59
2022/05/28 13:37:05;;;;;;;1.98;0.85;;;;;;;;;;8313484;28;20078;-60
2022/05/28 13:41:09;;;;;;;1.55;0.90;;;;;;;;;;8310706;28;20049;-59
2022/05/28 13:45:10;;;;;;;2.20;0.88;;;;;;;;;;8312006;28;20124;-59
2022/05/28 13:49:10;;;;;;;2.47;0.80;;;;;;;;;;8308712;28;20039;-58
2022/05/28 13:53:12;;;;;;;1.50;0.90;;;;;;;;;;8312667;28;20063;-60
2022/05/28 13:57:12;;;;;;;2.67;1.17;;;;;;;;;;8309967;28;20043;-58
2022/05/28 14:01:24;;;;;;;2.65;0.80;;;;;;;;;;8310881;28;20273;-59
2022/05/28 14:05:28;;;;;;;4.82;1.00;;;;;;;;;;8312323;28;20099;-57
2022/05/28 14:09:34;;;;;;;1.50;0.75;;;;;;;;;;8308977;28;20021;-58
2022/05/28 14:13:41;;;;;;;4.68;0.90;;;;;;;;;;8312074;28;20058;-58
2022/05/28 14:17:41;;;;;;;0.88;0.70;;;;;;;;;;8309601;28;20037;-59
2022/05/28 14:21:49;;;;;;;1.85;1.00;;;;;;;;;;8305111;28;20505;-58
2022/05/28 14:25:49;;;;;;;1.50;0.90;;;;;;;;;;8307939;28;20238;-59
2022/05/28 14:29:50;;;;;;;2.50;0.90;;;;;;;;;;8306936;28;20022;-60
2022/05/28 14:33:52;;;;;;;4.55;1.00;;;;;;;;;;8309799;28;20049;-60
2022/05/28 14:38:03;;;;;;;1.85;0.90;;;;;;;;;;8309741;28;20097;-59
2022/05/28 14:42:07;;;;;;;2.22;1.00;;;;;;;;;;8309518;28;20086;-59
2022/05/28 14:46:08;;;;;;;2.88;1.00;;;;;;;;;;8306209;28;21027;-59
2022/05/28 14:50:08;;;;;;;3.58;0.90;;;;;;;;;;8303621;28;20640;-59
2022/05/28 14:54:20;;;;;;;1.08;0.77;;;;;;;;;;8305909;28;20122;-59
2022/05/28 14:58:21;;;;;;;1.88;0.93;;;;;;;;;;8305976;28;20056;-60
2022/05/28 15:02:21;;;;;;;3.53;0.90;;;;;;;;;;8305375;28;20438;-60
2022/05/28 15:06:23;;;;;;;3.00;0.95;;;;;;;;;;8307301;28;20025;-59
2022/05/28 15:10:31;;;;;;;2.75;1.00;;;;;;;;;;8305766;28;20472;-59
2022/05/28 15:14:33;;;;;;;1.23;0.90;;;;;;;;;;8306422;28;20031;-60
2022/05/28 15:18:34;;;;;;;1.35;0.70;;;;;;;;;;8306035;28;20770;-59
2022/05/28 15:22:35;;;;;;;1.13;0.85;;;;;;;;;;8307269;28;20666;-60
2022/05/28 15:26:35;;;;;;;2.47;0.85;;;;;;;;;;8305295;28;20300;-59
2022/05/28 15:30:36;;;;;;;2.05;0.90;;;;;;;;;;8303452;28;20103;-59
2022/05/28 15:34:36;;;;;;;1.80;0.77;;;;;;;;;;8305468;28;20151;-59
2022/05/28 15:38:37;;;;;;;2.30;0.70;;;;;;;;;;8306469;28;20024;-60
2022/05/28 15:42:40;;;;;;;1.27;0.70;;;;;;;;;;8305250;28;21056;-60
2022/05/28 15:46:40;;;;;;;1.65;0.82;;;;;;;;;;8304501;28;20098;-58
2022/05/28 15:50:41;;;;;;;1.58;0.65;;;;;;;;;;8304862;28;20152;-59
2022/05/28 15:54:41;;;;;;;3.00;0.80;;;;;;;;;;8304938;28;20113;-58
2022/05/28 15:58:42;;;;;;;1.20;0.68;;;;;;;;;;8304300;28;20029;-58
2022/05/28 16:02:42;;;;;;;1.98;0.70;;;;;;;;;;8302073;28;20040;-59
2022/05/28 16:06:48;;;;;;;3.10;0.70;;;;;;;;;;8299691;28;20136;-59
2022/05/28 16:10:49;;;;;;;1.02;0.63;;;;;;;;;;8299099;28;20134;-58
2022/05/28 16:14:53;;;;;;;0.90;0.63;;;;;;;;;;8300478;28;20029;-59
2022/05/28 16:18:54;;;;;;;2.55;0.82;;;;;;;;;;8300742;28;20112;-59
2022/05/28 16:22:54;;;;;;;2.88;0.70;;;;;;;;;;8298555;28;20160;-60
2022/05/28 16:26:55;;;;;;;1.33;0.80;;;;;;;;;;8299838;28;20569;-58
2022/05/28 16:30:55;;;;;;;6.82;1.02;;;;;;;;;;8298174;28;20181;-58
2022/05/28 16:34:55;;;;;;;1.98;0.80;;;;;;;;;;8298582;28;20036;-58
2022/05/28 16:38:55;;;;;;;1.58;0.70;;;;;;;;;;8296416;28;20040;-58
2022/05/28 16:42:56;;;;;;;2.60;0.87;;;;;;;;;;8299963;28;20044;-59
2022/05/28 16:46:56;;;;;;;2.47;0.93;;;;;;;;;;8297733;28;20135;-59
2022/05/28 16:50:56;;;;;;;1.88;0.70;;;;;;;;;;8298518;28;21217;-58
2022/05/28 16:54:56;;;;;;;2.90;0.90;;;;;;;;;;8298156;28;21481;-58
2022/05/28 16:58:57;;;;;;;2.33;0.90;;;;;;;;;;8298776;28;20032;-58
2022/05/28 17:02:57;;;;;;;2.85;0.90;;;;;;;;;;8300444;28;20033;-59
2022/05/28 17:06:59;;;;;;;2.40;0.80;;;;;;;;;;8306291;28;20606;-59
2022/05/28 17:10:59;;;;;;;0.85;0.60;;;;;;;;;;8304615;28;20124;-59
2022/05/28 17:14:59;;;;;;;2.15;0.82;;;;;;;;;;8304795;28;20573;-59
2022/05/28 17:19:00;;;;;;;2.47;0.77;;;;;;;;;;8305249;28;20425;-59
2022/05/28 17:23:00;;;;;;;2.75;0.80;;;;;;;;;;8306198;28;20430;-59
2022/05/28 17:27:00;;;;;;;3.50;0.82;;;;;;;;;;8305713;28;20322;-59
2022/05/28 17:31:00;;;;;;;1.80;0.80;;;;;;;;;;8300331;28;20526;-59
2022/05/28 17:35:02;;;;;;;0.85;0.70;;;;;;;;;;8307156;28;20033;-59
2022/05/28 17:39:03;;;;;;;2.13;0.77;;;;;;;;;;8304478;28;20029;-59
2022/05/28 17:43:04;;;;;;;3.08;0.63;;;;;;;;;;8307848;28;20024;-59
2022/05/28 17:47:05;;;;;;;2.30;0.90;;;;;;;;;;8305471;28;20129;-59
2022/05/28 17:51:05;;;;;;;1.05;0.65;;;;;;;;;;8306615;28;20037;-58
2022/05/28 17:55:06;;;;;;;1.42;0.73;;;;;;;;;;8310159;28;20114;-59
2022/05/28 17:59:06;;;;;;;4.80;1.00;;;;;;;;;;8312870;28;20029;-58
2022/05/28 18:03:06;;;;;;;2.38;0.77;;;;;;;;;;8309987;28;20040;-59
2022/05/28 18:07:06;;;;;;;1.30;0.70;;;;;;;;;;8311083;28;20623;-58
2022/05/28 18:11:07;;;;;;;2.35;0.80;;;;;;;;;;8308623;28;20918;-59
2022/05/28 18:15:08;;;;;;;4.95;0.93;;;;;;;;;;8310416;28;20326;-59
2022/05/28 18:19:09;;;;;;;4.20;0.90;;;;;;;;;;8310446;28;20033;-58
2022/05/28 18:23:10;;;;;;;0.95;0.70;;;;;;;;;;8310497;28;20021;-59
2022/05/28 18:27:13;;;;;;;3.25;0.90;;;;;;;;;;8310267;28;20108;-59
2022/05/28 18:31:13;;;;;;;2.05;0.90;;;;;;;;;;8309825;28;20053;-59
2022/05/28 18:35:14;;;;;;;0.60;0.60;;;;;;;;;;8311102;28;20847;-59
2022/05/28 18:39:21;;;;;;;1.45;0.80;;;;;;;;;;8307477;28;20032;-59
2022/05/28 18:43:22;;;;;;;2.42;0.90;;;;;;;;;;8307316;28;20030;-59
2022/05/28 18:47:23;;;;;;;2.28;0.80;;;;;;;;;;8307952;28;20041;-59
2022/05/28 18:51:25;;;;;;;1.10;0.73;;;;;;;;;;8307070;28;20025;-59
2022/05/28 18:55:25;;;;;;;1.88;0.77;;;;;;;;;;8307371;28;20067;-59
2022/05/28 18:59:27;;;;;;;1.35;0.80;;;;;;;;;;8309654;28;21107;-60
2022/05/28 19:03:32;;;;;;;2.40;0.73;;;;;;;;;;8309103;28;20138;-58
2022/05/28 19:07:33;;;;;;;1.83;0.90;;;;;;;;;;8307576;28;20080;-59
2022/05/28 19:11:37;;;;;;;2.20;0.70;;;;;;;;;;8307323;28;20033;-58
2022/05/28 19:15:37;;;;;;;;;;;;;;;;;;8308306;28;20033;-59
2022/05/28 19:19:37;;;;;;;0.75;0.60;;;;;;;;;;8307095;28;19968;-58
2022/05/28 19:23:37;;;;;;;1.50;0.70;;;;;;;;;;8305122;28;20705;-58
2022/05/28 19:27:40;;;;;;;2.85;0.90;;;;;;;;;;8306281;28;20634;-58
2022/05/28 19:31:40;;;;;;;1.60;0.63;;;;;;;;;;8306190;28;20041;-59
2022/05/28 19:35:41;;;;;;;1.67;0.80;;;;;;;;;;8307083;28;20021;-58
2022/05/28 19:39:42;;;;;;;1.05;0.80;;;;;;;;;;8308322;28;20056;-59
2022/05/28 19:43:42;;;;;;;2.37;0.73;;;;;;;;;;8306394;28;20041;-58
2022/05/28 19:47:44;;;;;;;2.42;1.05;;;;;;;;;;8307796;28;20079;-59
2022/05/28 19:51:45;;;;;;;1.58;0.73;;;;;;;;;;8308686;28;20028;-59
2022/05/28 19:55:45;;;;;;;1.75;0.70;;;;;;;;;;8308123;28;20509;-58
2022/05/28 19:59:48;;;;;;;0.98;0.80;;;;;;;;;;8306028;28;21020;-58
2022/05/28 20:03:48;;;;;;;1.47;0.93;;;;;;;;;;8304748;28;20557;-59
2022/05/28 20:07:49;;;;;;;1.40;0.80;;;;;;;;;;8306901;28;20025;-58
2022/05/28 20:11:50;;;;;;;1.83;0.77;;;;;;;;;;8307752;28;20368;-59
2022/05/28 20:15:50;;;;;;;2.53;0.80;;;;;;;;;;8306250;28;20984;-59
2022/05/28 20:19:50;;;;;;;3.88;0.80;;;;;;;;;;8308236;28;20030;-59
2022/05/28 20:23:51;;;;;;;2.47;1.00;;;;;;;;;;8305436;28;20029;-58
2022/05/28 20:27:51;;;;;;;2.83;1.08;;;;;;;;;;8306479;28;20029;-62
2022/05/28 20:31:52;;;;;;;2.10;0.80;;;;;;;;;;8306759;28;20063;-58
2022/05/28 20:35:52;;;;;;;1.75;0.90;;;;;;;;;;8308764;28;20535;-58
2022/05/28 20:39:52;;;;;;;1.95;0.70;;;;;;;;;;8312270;28;20057;-59
2022/05/28 20:43:52;;;;;;;2.13;1.05;;;;;;;;;;8314787;28;20053;-58
2022/05/28 20:47:54;;;;;;;2.85;1.00;;;;;;;;;;8312479;28;20390;-58
2022/05/28 20:51:54;;;;;;;1.42;0.85;;;;;;;;;;8313925;28;20029;-58
2022/05/28 20:55:55;;;;;;;2.00;0.82;;;;;;;;;;8312187;28;20040;-59
2022/05/28 20:59:55;;;;;;;2.03;1.00;;;;;;;;;;8314421;28;20029;-59
2022/05/28 21:03:56;;;;;;;3.60;0.95;;;;;;;;;;8316665;28;20125;-59
2022/05/28 21:07:56;;;;;;;2.47;0.80;;;;;;;;;;8312115;28;20028;-59
2022/05/28 21:11:56;;;;;;;3.60;1.00;;;;;;;;;;8312694;28;20357;-58
2022/05/28 21:15:57;;;;;;;2.05;1.00;;;;;;;;;;8310723;28;20707;-58
2022/05/28 21:19:57;;;;;;;3.05;1.02;;;;;;;;;;8311111;28;20068;-58
2022/05/28 21:23:57;;;;;;;4.07;1.00;;;;;;;;;;8313075;28;20080;-59
2022/05/28 21:32:28;;;;;;;1.67;1.00;;;;;;;;;;8311448;28;20450;-58
2022/05/28 21:36:28;;;;;;;3.05;1.02;;;;;;;;;;8313139;28;20033;-58
2022/05/28 21:40:31;;;;;;;3.08;1.15;;;;;;;;;;8309225;28;20118;-58
2022/05/28 21:44:31;;;;;;;4.03;1.20;;;;;;;;;;8309268;28;20025;-58
2022/05/28 21:48:32;;;;;;;7.22;1.00;;;;;;;;;;8311055;28;20579;-59
2022/05/28 21:52:35;;;;;;;4.53;0.80;;;;;;;;;;8309700;28;20040;-58
2022/05/28 21:56:35;;;;;;;2.97;1.10;;;;;;;;;;8311239;28;20337;-58
2022/05/28 22:00:35;;;;;;;4.13;1.20;;;;;;;;;;8311604;28;20486;-58
2022/05/28 22:04:39;;;;;;;2.42;1.15;;;;;;;;;;8311542;28;20139;-58
2022/05/28 22:08:39;;;;;;;4.25;1.30;;;;;;;;;;8310087;28;20033;-59
2022/05/28 22:12:41;;;;;;;3.78;1.27;;;;;;;;;;8309446;28;21104;-58
2022/05/28 22:16:41;;;;;;;3.58;1.00;;;;;;;;;;8309622;28;20707;-58
2022/05/28 22:20:41;;;;;;;4.55;0.93;;;;;;;;;;8309771;28;20122;-58
2022/05/28 22:24:42;;;;;;;2.57;1.27;;;;;;;;;;8309598;28;20014;-58
2022/05/28 22:28:44;;;;;;;6.15;1.40;;;;;;;;;;8311305;28;20044;-58
2022/05/28 22:32:44;;;;;;;5.40;1.38;;;;;;;;;;8309829;28;20482;-58
2022/05/28 22:36:44;;;;;;;4.30;1.35;;;;;;;;;;8309410;28;20040;-59
2022/05/28 22:40:45;;;;;;;3.58;1.23;;;;;;;;;;8309281;28;20033;-59
2022/05/28 22:49:05;;;;;;;6.43;1.38;;;;;;;;;;8308209;28;20095;-59
2022/05/28 22:53:08;;;;;;;5.45;1.38;;;;;;;;;;8309457;28;20032;-57
2022/05/28 22:57:08;;;;;;;5.35;1.30;;;;;;;;;;8308806;28;20137;-61
2022/05/28 23:01:11;;;;;;;6.00;1.42;;;;;;;;;;8305445;28;20037;-58
2022/05/28 23:05:14;;;;;;;2.40;1.08;;;;;;;;;;8307754;28;20037;-59
2022/05/28 23:09:14;;;;;;;5.85;1.60;;;;;;;;;;8310502;28;20029;-58
2022/05/28 23:13:16;;;;;;;4.35;1.30;;;;;;;;;;8308223;28;20123;-57
2022/05/28 23:17:16;;;;;;;4.35;1.20;;;;;;;;;;8309339;28;20342;-58
2022/05/28 23:21:20;;;;;;;6.13;1.40;;;;;;;;;;8309865;28;20036;-57
2022/05/28 23:29:40;;;;;;;4.13;1.10;;;;;;;;;;8306700;28;20055;-59
2022/05/28 23:33:43;;;;;;;5.72;1.70;;;;;;;;;;8306455;28;20033;-59
2022/05/28 23:37:43;;;;;;;4.47;1.40;;;;;;;;;;8308338;28;20096;-58
2022/05/28 23:41:43;;;;;;;5.90;1.30;;;;;;;;;;8308512;28;20060;-58
2022/05/28 23:45:46;;;;;;;3.80;1.30;;;;;;;;;;8305596;28;20033;-57
2022/05/28 23:49:47;;;;;;;3.42;1.40;;;;;;;;;;8306435;28;20029;-57
2022/05/28 23:53:49;;;;;;;2.97;1.20;;;;;;;;;;8306050;28;20147;-58
2022/05/28 23:57:50;;;;;;;5.13;1.40;;;;;;;;;;8305293;28;20031;-58
